• Join FlightAware (Why Join?)
  • Login
  • US Flag 
08:26PM EDT


 

Airport Tracker/Info


-or-


 

Live Flight TrackerFlight Track Log ✈ ASQ4179 ✈ 02-Jul-2013 ✈ KIAH - KCLT

Flight Track Log - Related Links

Times and Time Zones

All times are in EDT time to prevent confusion due to time zone crossing. See the ASQ4179 flight status page for this flight to view local times or setup timezone preferences in your user account.

Time Position Orientation Groundspeed Altitude Reporting Facility
EDT Latitude Longitude Course Direction KTS MPH feet Rate Location/Type
09:24AM 29.9550 -95.3394 90° East 154 177 800  Level Houston Center
09:25AM 29.9283 -95.2994 128° Southeast 190 219 2,000 1,440 Climbing Houston Center
09:26AM 29.8842 -95.2325 127° Southeast 259 298 3,600 1,800 Climbing Houston Center
09:27AM 29.9834 -94.9295 90° East  Level FlightAware Approximate
09:27AM 29.8422 -95.1628 125° Southeast 267 307 5,700  Level Houston Center
09:28AM 29.9834 -94.7949 90° East  Level FlightAware Approximate
09:28AM 29.8178 -95.0817 109° East 281 323 7,800  Level Houston Center
09:29AM 29.9833 -94.6603 90° East  Level FlightAware Approximate
09:30AM 29.9834 -94.5257 90° East  Level FlightAware Approximate
09:30AM 29.8444 -94.9678 75° East 280 322 10,300  Level Houston Center
09:31AM 29.8672 -94.8703 75° East 305 351 11,000 840 Climbing Houston Center
09:32AM 29.8972 -94.7381 75° East 348 400 12,100 1,020 Climbing Houston Center
09:33AM 29.9228 -94.6244 75° East 361 415 13,200 1,020 Climbing Houston Center
09:34AM 29.9500 -94.5086 75° East 371 427 14,300 960 Climbing Houston Center
09:35AM 29.9806 -94.3792 75° East 379 436 15,300 840 Climbing Houston Center
09:36AM 30.0044 -94.2581 77° East 385 443 16,100 840 Climbing Houston Center
09:37AM 30.0186 -94.1303 83° East 397 457 17,100 780 Climbing Houston Center
09:38AM 30.0336 -94.0025 82° East 403 464 17,800 720 Climbing Houston Center
09:39AM 30.0503 -93.8731 82° East 408 470 18,600 840 Climbing Houston Center
09:40AM 30.0656 -93.7425 82° East 412 474 19,600 960 Climbing Houston Center
09:41AM 30.0839 -93.5847 82° East 418 481 20,600 900 Climbing Houston Center
09:42AM 30.0989 -93.4528 82° East 421 484 21,500 840 Climbing Houston Center
09:43AM 30.1147 -93.3192 82° East 426 490 22,400 780 Climbing Houston Center
09:44AM 30.1311 -93.1853 82° East 428 493 23,200 780 Climbing Houston Center
09:45AM 30.1503 -93.0497 81° East 430 495 24,100 900 Climbing Houston Center
09:46AM 30.1828 -92.8892 77° East 430 495 25,100 900 Climbing Houston Center
09:47AM 30.2111 -92.7547 76° East 432 497 26,000 840 Climbing Houston Center
09:48AM 30.2369 -92.6186 78° East 434 499 26,900 900 Climbing Houston Center
09:49AM 30.2631 -92.4833 77° East 434 499 27,900 840 Climbing Houston Center
09:50AM 30.2892 -92.3489 77° East 432 497 28,700 900 Climbing Houston Center
09:51AM 30.3147 -92.2050 78° East 433 498 29,800 960 Climbing Houston Center
09:52AM 30.3400 -92.0706 78° East 432 497 30,800 960 Climbing Houston Center
09:53AM 30.3708 -91.9081 78° East 433 498 31,800 960 Climbing Houston Center
09:55AM 30.3972 -91.7714 77° East 438 504 32,800 840 Climbing Houston Center
09:56AM 30.4203 -91.6469 78° East 435 501 33,600 840 Climbing Houston Center
09:57AM 30.4464 -91.5125 77° East 430 495 34,600 660 Climbing Houston Center
09:58AM 30.4747 -91.3503 79° East 429 494 35,000 180 Climbing Houston Center
09:59AM 30.5408 -91.2247 59° Northeast 466 536 35,000  Level Houston Center
10:00AM 30.6297 -91.1097 48° Northeast 477 549 35,000  Level Houston Center
10:01AM 30.7208 -90.9922 48° Northeast 484 557 35,000  Level Houston Center
10:02AM 30.8167 -90.8700 48° Northeast 504 580 35,000  Level Houston Center
10:03AM 30.9114 -90.7483 48° Northeast 505 581 35,000  Level Houston Center
10:04AM 31.0056 -90.6275 48° Northeast 503 579 35,000  Level Houston Center
10:05AM 31.1181 -90.4811 48° Northeast 502 578 35,000  Level Houston Center
10:06AM 31.2103 -90.3600 48° Northeast 499 574 35,000  Level Houston Center
10:07AM 31.3039 -90.2383 48° Northeast 500 575 35,000  Level Houston Center
10:08AM 31.3972 -90.1169 48° Northeast 501 577 35,000  Level Houston Center
10:09AM 31.4906 -89.9931 49° Northeast 503 579 35,000  Level Houston Center
10:10AM 31.5844 -89.8689 48° Northeast 506 582 35,000  Level Houston Center
10:11AM 31.6806 -89.7081 55° Northeast 503 579 35,000  Level Houston Center
10:12AM 31.7403 -89.5592 65° Northeast 504 580 35,000  Level Houston Center
10:13AM 31.7925 -89.4247 65° Northeast 502 578 35,000  Level Houston Center
10:14AM 31.8517 -89.2764 65° Northeast 501 577 35,000  Level Houston Center
10:15AM 31.9122 -89.1192 66° East 494 568 35,000  Level Memphis Center
10:16AM 31.9811 -88.9442 65° Northeast 508 585 35,000  Level Memphis Center
10:17AM 32.0419 -88.7961 64° Northeast 508 585 35,000  Level Memphis Center
10:19AM 32.1336 -88.5589 65° Northeast 507 583 35,000  Level Atlanta Center
10:20AM 32.1933 -88.4050 65° Northeast 502 578 35,000  Level Atlanta Center
10:21AM 32.2506 -88.2556 66° East 502 578 35,000  Level Atlanta Center
10:22AM 32.3033 -88.1181 66° East 502 578 35,000  Level Atlanta Center
10:23AM 32.3625 -87.9658 65° Northeast 502 578 35,000  Level Atlanta Center
10:24AM 32.4194 -87.8133 66° East 507 583 35,000  Level Atlanta Center
10:25AM 32.4831 -87.6436 66° East 507 583 35,000  Level Atlanta Center
10:26AM 32.5394 -87.4883 67° East 512 589 35,000  Level Atlanta Center
10:27AM 32.5939 -87.3350 67° East 512 589 35,000  Level Atlanta Center
10:28AM 32.6564 -87.1794 64° Northeast 506 582 35,000  Level Atlanta Center
10:29AM 32.7103 -87.0283 67° East 506 582 35,000  Level Atlanta Center
10:30AM 32.7658 -86.8772 66° East 506 582 35,000  Level Atlanta Center
10:31AM 32.8214 -86.7281 66° East 501 577 35,000  Level Atlanta Center
10:32AM 32.8769 -86.5789 66° East 496 571 35,000  Level Atlanta Center
10:33AM 32.9322 -86.4247 67° East 500 575 35,000  Level Atlanta Center
10:34AM 32.9850 -86.2750 67° East 488 562 35,000  Level Atlanta Center
10:35AM 33.0333 -86.1450 66° East 484 557 35,000  Level Atlanta Center
10:36AM 33.0881 -85.9850 68° East 490 564 35,000  Level Atlanta Center
10:37AM 33.1403 -85.8350 67° East 489 563 35,000  Level Atlanta Center
10:38AM 33.1947 -85.6822 67° East 495 570 35,000  Level Atlanta Center
10:39AM 33.2489 -85.5317 67° East 495 570 35,000  Level Atlanta Center
10:40AM 33.3047 -85.3836 66° East 484 557 35,000  Level Atlanta Center
10:41AM 33.3544 -85.2300 69° East 490 564 35,000  Level Atlanta Center
10:42AM 33.4081 -85.0764 67° East 490 564 35,000  Level Atlanta Center
10:43AM 33.4633 -84.9128 68° East 490 564 35,000  Level Atlanta Center
10:44AM 33.5167 -84.7614 67° East 490 564 35,000  Level Atlanta Center
10:45AM 33.5675 -84.6097 68° East 490 564 35,000  Level Atlanta Center
10:46AM 33.6078 -84.4753 70° East 485 558 35,000  Level Atlanta Center
10:47AM 33.6561 -84.3233 69° East 480 552 35,000  Level Atlanta Center
10:48AM 33.7067 -84.1511 71° East 487 560 35,000  Level Atlanta Center
10:49AM 33.7503 -84.0039 70° East 487 560 35,000  Level Atlanta Center
10:50AM 33.7919 -83.8514 72° East 481 554 35,000  Level Atlanta Center
10:51AM 33.8356 -83.7011 71° East 476 548 35,000 -120 Level Atlanta Center
10:52AM 33.8767 -83.5508 72° East 476 548 34,800 -660 Descending Atlanta Center
10:53AM 33.9200 -83.4006 71° East 471 542 33,700 -1,080 Descending Atlanta Center
10:54AM 33.9586 -83.2525 73° East 466 536 32,700 -1,080 Descending Atlanta Center
10:55AM 33.9994 -83.1042 72° East 466 536 31,600 -1,140 Descending Atlanta Center
10:56AM 34.0400 -82.9558 72° East 459 528 30,500 -1,260 Descending Atlanta Center
10:57AM 34.0803 -82.8047 72° East 464 534 29,100 -1,680 Descending Atlanta Center
10:58AM 34.1183 -82.6536 73° East 464 534 27,200 -1,800 Descending Atlanta Center
10:59AM 34.1564 -82.5225 71° East 457 526 25,500 -1,800 Descending Atlanta Center
11:00AM 34.1919 -82.3764 74° East 457 526 23,600 -1,980 Descending Atlanta Center
11:01AM 34.2297 -82.2272 73° East 457 526 21,600 -1,320 Descending Atlanta Center
11:02AM 34.2944 -82.0978 59° Northeast 457 526 21,000 -780 Descending Atlanta Center
11:03AM 34.3822 -81.9850 47° Northeast 447 514 20,100 -1,440 Descending Atlanta Center
11:04AM 34.4703 -81.8769 45° Northeast 447 514 18,200 -2,040 Descending Atlanta Center
11:05AM 34.5539 -81.7689 47° Northeast 442 509 16,100 -2,280 Descending Atlanta Center
11:06AM 34.6353 -81.6681 46° Northeast 430 495 13,700 -2,100 Descending Atlanta Center
11:07AM 34.7108 -81.5750 45° Northeast 397 457 12,000 -900 Descending Atlanta Center
11:08AM 34.7800 -81.4872 46° Northeast 366 421 11,900 -60 Descending Atlanta Center
11:09AM 34.8508 -81.3914 48° Northeast 361 415 11,900  Level Atlanta Center
11:10AM 34.9200 -81.3031 46° Northeast 361 415 12,000 -300 Climbing Atlanta Center
11:11AM 34.9828 -81.2197 47° Northeast 338 389 11,400 -1,260 Descending Atlanta Center
11:12AM 35.0414 -81.1442 47° Northeast 307 353 9,500 -1,200 Descending Atlanta Center
11:13AM 35.1044 -81.0761 41° Northeast 302 348 9,000 -420 Descending Atlanta Center
11:14AM 35.1942 -81.0678 North 292 336 8,700 -1,440 Descending Atlanta Center
11:15AM 35.3156 -81.0811 355° North 296 341 5,600 -1,980 Descending Atlanta Center
11:16AM 35.3886 -81.0886 355° North 282 325 4,100 -840 Descending Atlanta Center
11:17AM 35.4097 -81.0064 72° East 266 306 4,000 -120 Descending Atlanta Center